sensor_id;sensor_type;location;lat;lon;timestamp;P1;durP1;ratioP1;P2;durP2;ratioP2
22812;SDS011;11573;51.334;3.244;2023-06-10T00:00:37;11.18;;;9.80;;
22812;SDS011;11573;51.334;3.244;2023-06-10T00:03:04;13.23;;;8.77;;
22812;SDS011;11573;51.334;3.244;2023-06-10T00:05:31;13.52;;;9.75;;
22812;SDS011;11573;51.334;3.244;2023-06-10T00:07:58;12.02;;;9.13;;
22812;SDS011;11573;51.334;3.244;2023-06-10T00:10:26;12.98;;;9.63;;
22812;SDS011;11573;51.334;3.244;2023-06-10T00:12:53;12.77;;;9.65;;
22812;SDS011;11573;51.334;3.244;2023-06-10T00:15:20;11.00;;;9.82;;
22812;SDS011;11573;51.334;3.244;2023-06-10T00:17:47;16.63;;;9.60;;
22812;SDS011;11573;51.334;3.244;2023-06-10T00:20:15;11.75;;;9.55;;
22812;SDS011;11573;51.334;3.244;2023-06-10T00:22:42;10.50;;;9.35;;
22812;SDS011;11573;51.334;3.244;2023-06-10T00:25:12;15.07;;;10.25;;
22812;SDS011;11573;51.334;3.244;2023-06-10T00:27:39;12.88;;;9.63;;
22812;SDS011;11573;51.334;3.244;2023-06-10T00:30:06;13.70;;;10.32;;
22812;SDS011;11573;51.334;3.244;2023-06-10T00:32:34;16.23;;;10.55;;
22812;SDS011;11573;51.334;3.244;2023-06-10T00:35:03;13.85;;;10.68;;
22812;SDS011;11573;51.334;3.244;2023-06-10T00:37:30;13.73;;;10.90;;
22812;SDS011;11573;51.334;3.244;2023-06-10T00:39:58;11.57;;;10.48;;
22812;SDS011;11573;51.334;3.244;2023-06-10T00:42:25;15.48;;;10.65;;
22812;SDS011;11573;51.334;3.244;2023-06-10T00:44:54;12.05;;;10.75;;
22812;SDS011;11573;51.334;3.244;2023-06-10T00:47:21;12.85;;;11.32;;
22812;SDS011;11573;51.334;3.244;2023-06-10T00:49:52;17.08;;;11.75;;
22812;SDS011;11573;51.334;3.244;2023-06-10T00:52:19;11.48;;;10.38;;
22812;SDS011;11573;51.334;3.244;2023-06-10T00:54:50;15.77;;;11.85;;
22812;SDS011;11573;51.334;3.244;2023-06-10T00:57:17;13.23;;;11.27;;
22812;SDS011;11573;51.334;3.244;2023-06-10T00:59:47;19.20;;;11.93;;
22812;SDS011;11573;51.334;3.244;2023-06-10T01:02:15;20.20;;;11.95;;
22812;SDS011;11573;51.334;3.244;2023-06-10T01:04:43;12.68;;;11.23;;
22812;SDS011;11573;51.334;3.244;2023-06-10T01:07:28;14.98;;;12.23;;
22812;SDS011;11573;51.334;3.244;2023-06-10T01:15:30;13.15;;;11.73;;
22812;SDS011;11573;51.334;3.244;2023-06-10T01:18:02;14.05;;;12.45;;
22812;SDS011;11573;51.334;3.244;2023-06-10T01:20:37;14.60;;;12.38;;
22812;SDS011;11573;51.334;3.244;2023-06-10T01:23:07;15.25;;;12.70;;
22812;SDS011;11573;51.334;3.244;2023-06-10T01:25:36;14.63;;;12.52;;
22812;SDS011;11573;51.334;3.244;2023-06-10T01:28:13;17.77;;;12.73;;
22812;SDS011;11573;51.334;3.244;2023-06-10T01:33:31;14.52;;;13.00;;
22812;SDS011;11573;51.334;3.244;2023-06-10T01:36:02;16.98;;;12.95;;
22812;SDS011;11573;51.334;3.244;2023-06-10T01:38:30;14.75;;;13.05;;
22812;SDS011;11573;51.334;3.244;2023-06-10T01:41:03;18.05;;;13.85;;
22812;SDS011;11573;51.334;3.244;2023-06-10T01:43:33;14.70;;;13.18;;
22812;SDS011;11573;51.334;3.244;2023-06-10T01:46:01;19.10;;;14.43;;
22812;SDS011;11573;51.334;3.244;2023-06-10T01:48:29;19.50;;;13.75;;
22812;SDS011;11573;51.334;3.244;2023-06-10T01:50:56;16.15;;;14.45;;
22812;SDS011;11573;51.334;3.244;2023-06-10T01:53:22;15.70;;;14.20;;
22812;SDS011;11573;51.334;3.244;2023-06-10T01:55:50;17.90;;;14.23;;
22812;SDS011;11573;51.334;3.244;2023-06-10T01:58:17;16.48;;;14.40;;
22812;SDS011;11573;51.334;3.244;2023-06-10T02:00:44;17.33;;;14.52;;
22812;SDS011;11573;51.334;3.244;2023-06-10T02:03:11;16.80;;;14.40;;
22812;SDS011;11573;51.334;3.244;2023-06-10T02:05:38;16.55;;;14.90;;
22812;SDS011;11573;51.334;3.244;2023-06-10T02:08:06;17.83;;;15.95;;
22812;SDS011;11573;51.334;3.244;2023-06-10T02:10:33;17.55;;;15.30;;
22812;SDS011;11573;51.334;3.244;2023-06-10T02:13:00;18.90;;;16.65;;
22812;SDS011;11573;51.334;3.244;2023-06-10T02:15:27;20.35;;;16.33;;
22812;SDS011;11573;51.334;3.244;2023-06-10T02:17:54;18.38;;;16.40;;
22812;SDS011;11573;51.334;3.244;2023-06-10T02:20:22;17.38;;;15.55;;
22812;SDS011;11573;51.334;3.244;2023-06-10T02:22:49;20.58;;;16.05;;
22812;SDS011;11573;51.334;3.244;2023-06-10T02:25:16;18.17;;;16.23;;
22812;SDS011;11573;51.334;3.244;2023-06-10T02:27:43;18.90;;;15.13;;
22812;SDS011;11573;51.334;3.244;2023-06-10T02:30:10;22.42;;;16.95;;
22812;SDS011;11573;51.334;3.244;2023-06-10T02:32:37;19.75;;;16.80;;
22812;SDS011;11573;51.334;3.244;2023-06-10T02:35:04;21.38;;;16.90;;
22812;SDS011;11573;51.334;3.244;2023-06-10T02:37:33;22.67;;;17.20;;
22812;SDS011;11573;51.334;3.244;2023-06-10T02:40:00;21.48;;;17.25;;
22812;SDS011;11573;51.334;3.244;2023-06-10T02:42:27;21.13;;;18.40;;
22812;SDS011;11573;51.334;3.244;2023-06-10T02:44:54;21.88;;;16.45;;
22812;SDS011;11573;51.334;3.244;2023-06-10T02:47:32;21.83;;;17.92;;
22812;SDS011;11573;51.334;3.244;2023-06-10T02:49:59;21.38;;;17.65;;
22812;SDS011;11573;51.334;3.244;2023-06-10T02:52:29;21.38;;;18.20;;
22812;SDS011;11573;51.334;3.244;2023-06-10T02:54:57;21.73;;;18.50;;
22812;SDS011;11573;51.334;3.244;2023-06-10T02:57:25;22.88;;;17.63;;
22812;SDS011;11573;51.334;3.244;2023-06-10T02:59:52;21.67;;;18.08;;
22812;SDS011;11573;51.334;3.244;2023-06-10T03:02:20;21.02;;;17.35;;
22812;SDS011;11573;51.334;3.244;2023-06-10T03:04:50;21.73;;;17.92;;
22812;SDS011;11573;51.334;3.244;2023-06-10T03:07:19;22.30;;;18.77;;
22812;SDS011;11573;51.334;3.244;2023-06-10T03:09:49;21.73;;;19.58;;
22812;SDS011;11573;51.334;3.244;2023-06-10T03:12:16;21.88;;;18.17;;
22812;SDS011;11573;51.334;3.244;2023-06-10T03:14:46;22.48;;;17.65;;
22812;SDS011;11573;51.334;3.244;2023-06-10T03:17:15;20.95;;;17.75;;
22812;SDS011;11573;51.334;3.244;2023-06-10T03:19:43;26.23;;;19.38;;
22812;SDS011;11573;51.334;3.244;2023-06-10T03:22:13;21.27;;;17.95;;
22812;SDS011;11573;51.334;3.244;2023-06-10T03:24:48;21.42;;;18.75;;
22812;SDS011;11573;51.334;3.244;2023-06-10T03:27:17;21.52;;;18.63;;
22812;SDS011;11573;51.334;3.244;2023-06-10T03:29:48;22.35;;;19.35;;
22812;SDS011;11573;51.334;3.244;2023-06-10T03:32:16;22.90;;;19.45;;
22812;SDS011;11573;51.334;3.244;2023-06-10T03:34:43;22.83;;;20.10;;
22812;SDS011;11573;51.334;3.244;2023-06-10T03:37:14;21.58;;;19.38;;
22812;SDS011;11573;51.334;3.244;2023-06-10T03:39:43;22.58;;;19.27;;
22812;SDS011;11573;51.334;3.244;2023-06-10T03:42:10;25.10;;;18.80;;
22812;SDS011;11573;51.334;3.244;2023-06-10T03:44:38;22.52;;;19.00;;
22812;SDS011;11573;51.334;3.244;2023-06-10T03:47:05;22.50;;;20.13;;
22812;SDS011;11573;51.334;3.244;2023-06-10T03:49:32;22.00;;;19.70;;
22812;SDS011;11573;51.334;3.244;2023-06-10T03:52:01;22.20;;;18.73;;
22812;SDS011;11573;51.334;3.244;2023-06-10T03:54:28;26.98;;;19.88;;
22812;SDS011;11573;51.334;3.244;2023-06-10T03:56:55;22.15;;;18.35;;
22812;SDS011;11573;51.334;3.244;2023-06-10T03:59:22;21.42;;;19.20;;
22812;SDS011;11573;51.334;3.244;2023-06-10T04:01:49;23.25;;;19.15;;
22812;SDS011;11573;51.334;3.244;2023-06-10T04:04:17;22.05;;;19.83;;
22812;SDS011;11573;51.334;3.244;2023-06-10T04:06:45;20.15;;;18.05;;
22812;SDS011;11573;51.334;3.244;2023-06-10T04:09:13;20.63;;;17.92;;
22812;SDS011;11573;51.334;3.244;2023-06-10T04:11:41;26.05;;;19.33;;
22812;SDS011;11573;51.334;3.244;2023-06-10T04:14:08;21.08;;;17.83;;
22812;SDS011;11573;51.334;3.244;2023-06-10T04:16:36;20.48;;;18.35;;
22812;SDS011;11573;51.334;3.244;2023-06-10T04:19:05;22.35;;;18.48;;
22812;SDS011;11573;51.334;3.244;2023-06-10T04:21:32;23.33;;;18.67;;
22812;SDS011;11573;51.334;3.244;2023-06-10T04:23:59;19.15;;;17.15;;
22812;SDS011;11573;51.334;3.244;2023-06-10T04:26:27;19.90;;;16.23;;
22812;SDS011;11573;51.334;3.244;2023-06-10T04:28:54;20.10;;;16.98;;
22812;SDS011;11573;51.334;3.244;2023-06-10T04:31:21;17.98;;;16.17;;
22812;SDS011;11573;51.334;3.244;2023-06-10T04:33:49;18.92;;;15.88;;
22812;SDS011;11573;51.334;3.244;2023-06-10T04:36:16;16.95;;;15.20;;
22812;SDS011;11573;51.334;3.244;2023-06-10T04:38:43;16.90;;;15.10;;
22812;SDS011;11573;51.334;3.244;2023-06-10T04:41:10;17.67;;;15.45;;
22812;SDS011;11573;51.334;3.244;2023-06-10T04:43:38;18.45;;;15.30;;
22812;SDS011;11573;51.334;3.244;2023-06-10T04:46:05;17.52;;;14.90;;
22812;SDS011;11573;51.334;3.244;2023-06-10T04:48:35;16.58;;;14.27;;
22812;SDS011;11573;51.334;3.244;2023-06-10T04:51:03;17.33;;;15.52;;
22812;SDS011;11573;51.334;3.244;2023-06-10T04:53:31;21.90;;;14.93;;
22812;SDS011;11573;51.334;3.244;2023-06-10T04:55:58;18.25;;;14.23;;
22812;SDS011;11573;51.334;3.244;2023-06-10T04:58:25;17.45;;;15.40;;
22812;SDS011;11573;51.334;3.244;2023-06-10T05:00:52;16.20;;;14.57;;
22812;SDS011;11573;51.334;3.244;2023-06-10T05:03:19;16.17;;;14.35;;
22812;SDS011;11573;51.334;3.244;2023-06-10T05:05:46;20.40;;;13.95;;
22812;SDS011;11573;51.334;3.244;2023-06-10T05:08:13;15.32;;;13.73;;
22812;SDS011;11573;51.334;3.244;2023-06-10T05:10:40;15.98;;;14.10;;
22812;SDS011;11573;51.334;3.244;2023-06-10T05:13:07;15.45;;;13.90;;
22812;SDS011;11573;51.334;3.244;2023-06-10T05:15:35;15.95;;;13.13;;
22812;SDS011;11573;51.334;3.244;2023-06-10T05:18:02;16.92;;;13.05;;
22812;SDS011;11573;51.334;3.244;2023-06-10T05:20:29;19.10;;;13.82;;
22812;SDS011;11573;51.334;3.244;2023-06-10T05:22:56;19.10;;;14.20;;
22812;SDS011;11573;51.334;3.244;2023-06-10T05:25:25;14.82;;;13.32;;
22812;SDS011;11573;51.334;3.244;2023-06-10T05:27:53;14.98;;;13.38;;
22812;SDS011;11573;51.334;3.244;2023-06-10T05:30:20;14.85;;;13.30;;
22812;SDS011;11573;51.334;3.244;2023-06-10T05:32:48;15.02;;;13.48;;
22812;SDS011;11573;51.334;3.244;2023-06-10T05:35:15;15.05;;;12.95;;
22812;SDS011;11573;51.334;3.244;2023-06-10T05:37:42;15.55;;;13.95;;
22812;SDS011;11573;51.334;3.244;2023-06-10T05:40:10;19.33;;;14.50;;
22812;SDS011;11573;51.334;3.244;2023-06-10T05:42:37;17.38;;;13.85;;
22812;SDS011;11573;51.334;3.244;2023-06-10T05:45:05;14.65;;;13.15;;
22812;SDS011;11573;51.334;3.244;2023-06-10T05:47:34;16.42;;;14.43;;
22812;SDS011;11573;51.334;3.244;2023-06-10T05:50:01;16.02;;;12.57;;
22812;SDS011;11573;51.334;3.244;2023-06-10T05:52:28;14.27;;;11.95;;
22812;SDS011;11573;51.334;3.244;2023-06-10T05:54:55;20.17;;;14.75;;
22812;SDS011;11573;51.334;3.244;2023-06-10T05:57:23;15.80;;;14.10;;
22812;SDS011;11573;51.334;3.244;2023-06-10T05:59:49;16.25;;;14.13;;
22812;SDS011;11573;51.334;3.244;2023-06-10T06:02:17;16.02;;;14.07;;
22812;SDS011;11573;51.334;3.244;2023-06-10T06:04:44;124.93;;;25.35;;
22812;SDS011;11573;51.334;3.244;2023-06-10T06:07:11;16.83;;;14.50;;
22812;SDS011;11573;51.334;3.244;2023-06-10T06:09:38;18.63;;;14.75;;
22812;SDS011;11573;51.334;3.244;2023-06-10T06:12:05;19.42;;;15.18;;
22812;SDS011;11573;51.334;3.244;2023-06-10T06:14:36;18.80;;;16.00;;
22812;SDS011;11573;51.334;3.244;2023-06-10T06:17:05;17.38;;;15.23;;
22812;SDS011;11573;51.334;3.244;2023-06-10T06:19:33;17.88;;;15.77;;
22812;SDS011;11573;51.334;3.244;2023-06-10T06:22:00;19.10;;;16.80;;
22812;SDS011;11573;51.334;3.244;2023-06-10T06:24:27;21.73;;;15.02;;
22812;SDS011;11573;51.334;3.244;2023-06-10T06:26:55;17.92;;;14.55;;
22812;SDS011;11573;51.334;3.244;2023-06-10T06:29:22;18.10;;;14.93;;
22812;SDS011;11573;51.334;3.244;2023-06-10T06:31:49;21.05;;;15.45;;
22812;SDS011;11573;51.334;3.244;2023-06-10T06:34:16;20.60;;;15.43;;
22812;SDS011;11573;51.334;3.244;2023-06-10T06:36:43;16.35;;;14.38;;
22812;SDS011;11573;51.334;3.244;2023-06-10T06:39:10;17.65;;;15.07;;
22812;SDS011;11573;51.334;3.244;2023-06-10T06:41:37;18.58;;;14.77;;
22812;SDS011;11573;51.334;3.244;2023-06-10T06:44:04;19.83;;;15.07;;
22812;SDS011;11573;51.334;3.244;2023-06-10T06:46:36;18.80;;;14.50;;
22812;SDS011;11573;51.334;3.244;2023-06-10T06:49:03;113.03;;;22.13;;
22812;SDS011;11573;51.334;3.244;2023-06-10T06:51:30;188.75;;;31.63;;
22812;SDS011;11573;51.334;3.244;2023-06-10T06:53:57;22.95;;;13.57;;
22812;SDS011;11573;51.334;3.244;2023-06-10T06:56:25;16.23;;;14.02;;
22812;SDS011;11573;51.334;3.244;2023-06-10T06:58:54;15.52;;;13.90;;
22812;SDS011;11573;51.334;3.244;2023-06-10T07:01:23;27.92;;;14.68;;
22812;SDS011;11573;51.334;3.244;2023-06-10T07:03:50;18.58;;;14.27;;
22812;SDS011;11573;51.334;3.244;2023-06-10T07:06:17;20.45;;;14.40;;
22812;SDS011;11573;51.334;3.244;2023-06-10T07:08:44;15.25;;;13.32;;
22812;SDS011;11573;51.334;3.244;2023-06-10T07:11:12;18.17;;;13.85;;
22812;SDS011;11573;51.334;3.244;2023-06-10T07:13:38;19.20;;;15.23;;
22812;SDS011;11573;51.334;3.244;2023-06-10T07:16:05;18.13;;;13.60;;
22812;SDS011;11573;51.334;3.244;2023-06-10T07:18:32;16.85;;;13.77;;
22812;SDS011;11573;51.334;3.244;2023-06-10T07:20:59;16.85;;;14.05;;
22812;SDS011;11573;51.334;3.244;2023-06-10T07:23:26;15.90;;;14.00;;
22812;SDS011;11573;51.334;3.244;2023-06-10T07:25:53;19.95;;;14.00;;
22812;SDS011;11573;51.334;3.244;2023-06-10T07:28:20;16.08;;;13.55;;
22812;SDS011;11573;51.334;3.244;2023-06-10T07:30:47;18.73;;;13.30;;
22812;SDS011;11573;51.334;3.244;2023-06-10T07:33:14;14.75;;;12.43;;
22812;SDS011;11573;51.334;3.244;2023-06-10T07:35:41;17.08;;;14.02;;
22812;SDS011;11573;51.334;3.244;2023-06-10T07:38:09;16.67;;;13.23;;
22812;SDS011;11573;51.334;3.244;2023-06-10T07:40:36;16.17;;;13.10;;
22812;SDS011;11573;51.334;3.244;2023-06-10T07:43:03;16.25;;;12.70;;
22812;SDS011;11573;51.334;3.244;2023-06-10T07:45:30;16.02;;;12.05;;
22812;SDS011;11573;51.334;3.244;2023-06-10T07:47:57;18.13;;;13.18;;
22812;SDS011;11573;51.334;3.244;2023-06-10T07:50:24;15.95;;;12.38;;
22812;SDS011;11573;51.334;3.244;2023-06-10T07:52:51;17.10;;;12.07;;
22812;SDS011;11573;51.334;3.244;2023-06-10T07:55:18;16.92;;;13.32;;
22812;SDS011;11573;51.334;3.244;2023-06-10T07:57:45;15.38;;;12.98;;
22812;SDS011;11573;51.334;3.244;2023-06-10T08:00:13;18.73;;;13.45;;
22812;SDS011;11573;51.334;3.244;2023-06-10T08:02:40;16.88;;;12.80;;
22812;SDS011;11573;51.334;3.244;2023-06-10T08:05:07;16.23;;;12.88;;
22812;SDS011;11573;51.334;3.244;2023-06-10T08:07:35;17.95;;;13.77;;
22812;SDS011;11573;51.334;3.244;2023-06-10T08:10:02;13.50;;;12.10;;
22812;SDS011;11573;51.334;3.244;2023-06-10T08:12:30;15.70;;;11.82;;
22812;SDS011;11573;51.334;3.244;2023-06-10T08:14:58;13.88;;;12.38;;
22812;SDS011;11573;51.334;3.244;2023-06-10T08:17:25;18.05;;;11.68;;
22812;SDS011;11573;51.334;3.244;2023-06-10T08:19:52;15.57;;;12.00;;
22812;SDS011;11573;51.334;3.244;2023-06-10T08:22:19;14.18;;;11.27;;
22812;SDS011;11573;51.334;3.244;2023-06-10T08:24:46;14.63;;;12.70;;
22812;SDS011;11573;51.334;3.244;2023-06-10T08:27:14;17.60;;;11.80;;
22812;SDS011;11573;51.334;3.244;2023-06-10T08:29:41;41.72;;;14.18;;
22812;SDS011;11573;51.334;3.244;2023-06-10T08:32:08;16.17;;;11.27;;
22812;SDS011;11573;51.334;3.244;2023-06-10T08:34:35;17.48;;;11.65;;
22812;SDS011;11573;51.334;3.244;2023-06-10T08:37:03;13.57;;;11.68;;
22812;SDS011;11573;51.334;3.244;2023-06-10T08:39:31;13.50;;;11.43;;
22812;SDS011;11573;51.334;3.244;2023-06-10T08:44:56;14.40;;;10.82;;
22812;SDS011;11573;51.334;3.244;2023-06-10T08:47:29;15.65;;;11.10;;
22812;SDS011;11573;51.334;3.244;2023-06-10T08:50:03;14.00;;;10.48;;
22812;SDS011;11573;51.334;3.244;2023-06-10T08:52:35;19.80;;;10.65;;
22812;SDS011;11573;51.334;3.244;2023-06-10T08:57:48;11.80;;;10.45;;
22812;SDS011;11573;51.334;3.244;2023-06-10T09:00:16;14.10;;;9.60;;
22812;SDS011;11573;51.334;3.244;2023-06-10T09:02:43;11.68;;;10.45;;
22812;SDS011;11573;51.334;3.244;2023-06-10T09:05:11;11.85;;;9.60;;
22812;SDS011;11573;51.334;3.244;2023-06-10T09:07:39;13.48;;;9.10;;
22812;SDS011;11573;51.334;3.244;2023-06-10T09:10:07;12.52;;;9.13;;
22812;SDS011;11573;51.334;3.244;2023-06-10T09:12:35;13.50;;;10.13;;
22812;SDS011;11573;51.334;3.244;2023-06-10T09:15:04;11.88;;;8.93;;
22812;SDS011;11573;51.334;3.244;2023-06-10T09:17:32;12.30;;;9.18;;
22812;SDS011;11573;51.334;3.244;2023-06-10T09:20:00;13.02;;;9.68;;
22812;SDS011;11573;51.334;3.244;2023-06-10T09:22:29;10.50;;;9.40;;
22812;SDS011;11573;51.334;3.244;2023-06-10T09:25:05;10.30;;;9.20;;
22812;SDS011;11573;51.334;3.244;2023-06-10T09:28:12;15.23;;;8.27;;
22812;SDS011;11573;51.334;3.244;2023-06-10T09:30:32;12.38;;;8.75;;
22812;SDS011;11573;51.334;3.244;2023-06-10T09:33:00;10.27;;;8.60;;
22812;SDS011;11573;51.334;3.244;2023-06-10T09:35:30;9.43;;;8.45;;
22812;SDS011;11573;51.334;3.244;2023-06-10T09:37:58;12.38;;;9.18;;
22812;SDS011;11573;51.334;3.244;2023-06-10T09:40:26;9.88;;;8.77;;
22812;SDS011;11573;51.334;3.244;2023-06-10T09:42:57;10.68;;;8.32;;
22812;SDS011;11573;51.334;3.244;2023-06-10T09:45:29;14.40;;;8.88;;
22812;SDS011;11573;51.334;3.244;2023-06-10T09:48:00;10.60;;;8.02;;
22812;SDS011;11573;51.334;3.244;2023-06-10T09:50:27;10.65;;;8.02;;
22812;SDS011;11573;51.334;3.244;2023-06-10T09:52:59;15.57;;;7.80;;
22812;SDS011;11573;51.334;3.244;2023-06-10T09:55:26;10.63;;;8.52;;
22812;SDS011;11573;51.334;3.244;2023-06-10T09:57:53;9.30;;;8.23;;
22812;SDS011;11573;51.334;3.244;2023-06-10T10:00:21;8.48;;;7.55;;
22812;SDS011;11573;51.334;3.244;2023-06-10T10:02:50;8.10;;;7.32;;
22812;SDS011;11573;51.334;3.244;2023-06-10T10:05:21;9.18;;;7.63;;
22812;SDS011;11573;51.334;3.244;2023-06-10T10:07:49;12.07;;;7.88;;
22812;SDS011;11573;51.334;3.244;2023-06-10T10:10:18;9.32;;;6.82;;
22812;SDS011;11573;51.334;3.244;2023-06-10T10:12:50;9.00;;;6.80;;
22812;SDS011;11573;51.334;3.244;2023-06-10T10:15:22;9.98;;;6.95;;
22812;SDS011;11573;51.334;3.244;2023-06-10T10:20:31;9.55;;;6.45;;
22812;SDS011;11573;51.334;3.244;2023-06-10T10:23:03;9.10;;;6.75;;
22812;SDS011;11573;51.334;3.244;2023-06-10T10:25:40;10.85;;;6.43;;
22812;SDS011;11573;51.334;3.244;2023-06-10T10:28:12;10.98;;;6.57;;
22812;SDS011;11573;51.334;3.244;2023-06-10T10:30:51;9.48;;;6.82;;
22812;SDS011;11573;51.334;3.244;2023-06-10T10:33:34;8.82;;;6.18;;
22812;SDS011;11573;51.334;3.244;2023-06-10T10:36:08;13.27;;;6.78;;
22812;SDS011;11573;51.334;3.244;2023-06-10T10:38:35;8.73;;;7.35;;
22812;SDS011;11573;51.334;3.244;2023-06-10T10:41:03;7.07;;;6.30;;
22812;SDS011;11573;51.334;3.244;2023-06-10T10:43:31;8.70;;;6.65;;
22812;SDS011;11573;51.334;3.244;2023-06-10T10:46:08;7.78;;;6.97;;
22812;SDS011;11573;51.334;3.244;2023-06-10T10:48:39;11.18;;;7.07;;
22812;SDS011;11573;51.334;3.244;2023-06-10T10:51:10;10.60;;;6.70;;
22812;SDS011;11573;51.334;3.244;2023-06-10T10:53:38;7.32;;;6.63;;
22812;SDS011;11573;51.334;3.244;2023-06-10T10:56:06;12.27;;;7.65;;
22812;SDS011;11573;51.334;3.244;2023-06-10T10:58:37;9.23;;;6.53;;
22812;SDS011;11573;51.334;3.244;2023-06-10T11:01:11;9.02;;;6.70;;
22812;SDS011;11573;51.334;3.244;2023-06-10T11:03:44;11.25;;;7.30;;
22812;SDS011;11573;51.334;3.244;2023-06-10T11:06:14;10.80;;;7.53;;
22812;SDS011;11573;51.334;3.244;2023-06-10T11:11:17;11.13;;;6.78;;
22812;SDS011;11573;51.334;3.244;2023-06-10T11:14:06;7.95;;;6.60;;
22812;SDS011;11573;51.334;3.244;2023-06-10T11:16:42;7.05;;;6.25;;
22812;SDS011;11573;51.334;3.244;2023-06-10T11:19:09;8.52;;;7.13;;
22812;SDS011;11573;51.334;3.244;2023-06-10T11:22:01;9.27;;;6.00;;
22812;SDS011;11573;51.334;3.244;2023-06-10T11:24:30;11.43;;;5.97;;
22812;SDS011;11573;51.334;3.244;2023-06-10T11:27:16;11.02;;;5.90;;
22812;SDS011;11573;51.334;3.244;2023-06-10T11:32:34;8.38;;;6.43;;
22812;SDS011;11573;51.334;3.244;2023-06-10T11:35:04;7.80;;;6.13;;
22812;SDS011;11573;51.334;3.244;2023-06-10T11:37:33;8.18;;;6.22;;
22812;SDS011;11573;51.334;3.244;2023-06-10T11:40:01;36.63;;;7.88;;
22812;SDS011;11573;51.334;3.244;2023-06-10T11:42:28;7.45;;;6.25;;
22812;SDS011;11573;51.334;3.244;2023-06-10T11:44:56;10.02;;;7.57;;
22812;SDS011;11573;51.334;3.244;2023-06-10T11:47:23;7.40;;;6.68;;
22812;SDS011;11573;51.334;3.244;2023-06-10T11:49:56;7.65;;;6.20;;
22812;SDS011;11573;51.334;3.244;2023-06-10T11:52:27;8.45;;;6.65;;
22812;SDS011;11573;51.334;3.244;2023-06-10T11:54:55;10.93;;;6.80;;
22812;SDS011;11573;51.334;3.244;2023-06-10T11:57:22;9.95;;;6.72;;
22812;SDS011;11573;51.334;3.244;2023-06-10T11:59:49;10.40;;;7.00;;
22812;SDS011;11573;51.334;3.244;2023-06-10T12:02:17;8.23;;;7.40;;
22812;SDS011;11573;51.334;3.244;2023-06-10T12:04:45;8.20;;;6.82;;
22812;SDS011;11573;51.334;3.244;2023-06-10T12:07:19;10.07;;;6.28;;
22812;SDS011;11573;51.334;3.244;2023-06-10T12:09:46;9.32;;;6.97;;
22812;SDS011;11573;51.334;3.244;2023-06-10T12:12:24;9.80;;;6.82;;
22812;SDS011;11573;51.334;3.244;2023-06-10T12:14:55;9.02;;;7.40;;
22812;SDS011;11573;51.334;3.244;2023-06-10T12:19:58;8.40;;;7.50;;
22812;SDS011;11573;51.334;3.244;2023-06-10T12:22:26;10.50;;;7.40;;
22812;SDS011;11573;51.334;3.244;2023-06-10T12:24:57;9.80;;;7.10;;
22812;SDS011;11573;51.334;3.244;2023-06-10T12:27:29;8.57;;;7.18;;
22812;SDS011;11573;51.334;3.244;2023-06-10T12:29:57;10.50;;;7.68;;
22812;SDS011;11573;51.334;3.244;2023-06-10T12:35:12;9.60;;;7.40;;
22812;SDS011;11573;51.334;3.244;2023-06-10T12:37:54;12.15;;;7.63;;
22812;SDS011;11573;51.334;3.244;2023-06-10T12:40:47;12.75;;;7.40;;
22812;SDS011;11573;51.334;3.244;2023-06-10T12:43:13;9.15;;;7.25;;
22812;SDS011;11573;51.334;3.244;2023-06-10T12:45:45;9.57;;;8.05;;
22812;SDS011;11573;51.334;3.244;2023-06-10T12:48:17;12.20;;;7.82;;
22812;SDS011;11573;51.334;3.244;2023-06-10T12:53:21;9.32;;;7.75;;
22812;SDS011;11573;51.334;3.244;2023-06-10T12:55:53;9.68;;;7.32;;
22812;SDS011;11573;51.334;3.244;2023-06-10T12:58:20;12.02;;;7.05;;
22812;SDS011;11573;51.334;3.244;2023-06-10T13:00:48;8.65;;;7.07;;
22812;SDS011;11573;51.334;3.244;2023-06-10T13:03:19;17.63;;;8.32;;
22812;SDS011;11573;51.334;3.244;2023-06-10T13:05:46;18.40;;;7.82;;
22812;SDS011;11573;51.334;3.244;2023-06-10T13:08:13;11.05;;;6.50;;
22812;SDS011;11573;51.334;3.244;2023-06-10T13:10:39;11.00;;;6.40;;
22812;SDS011;11573;51.334;3.244;2023-06-10T13:13:07;9.98;;;6.97;;
22812;SDS011;11573;51.334;3.244;2023-06-10T13:15:36;11.93;;;6.88;;
22812;SDS011;11573;51.334;3.244;2023-06-10T13:18:08;9.90;;;6.82;;
22812;SDS011;11573;51.334;3.244;2023-06-10T13:20:36;8.25;;;6.10;;
22812;SDS011;11573;51.334;3.244;2023-06-10T13:23:03;11.45;;;7.22;;
22812;SDS011;11573;51.334;3.244;2023-06-10T13:25:30;7.15;;;6.47;;
22812;SDS011;11573;51.334;3.244;2023-06-10T13:27:57;13.10;;;6.32;;
22812;SDS011;11573;51.334;3.244;2023-06-10T13:30:24;11.35;;;6.93;;
22812;SDS011;11573;51.334;3.244;2023-06-10T13:32:51;8.35;;;7.15;;
22812;SDS011;11573;51.334;3.244;2023-06-10T13:35:18;6.90;;;6.20;;
22812;SDS011;11573;51.334;3.244;2023-06-10T13:37:45;10.07;;;6.25;;
22812;SDS011;11573;51.334;3.244;2023-06-10T13:40:12;9.15;;;6.57;;
22812;SDS011;11573;51.334;3.244;2023-06-10T13:42:39;8.07;;;6.25;;
22812;SDS011;11573;51.334;3.244;2023-06-10T13:45:06;8.98;;;6.20;;
22812;SDS011;11573;51.334;3.244;2023-06-10T13:47:34;10.98;;;6.18;;
22812;SDS011;11573;51.334;3.244;2023-06-10T13:50:01;7.68;;;6.65;;
22812;SDS011;11573;51.334;3.244;2023-06-10T13:52:28;8.30;;;6.40;;
22812;SDS011;11573;51.334;3.244;2023-06-10T13:54:55;10.27;;;6.55;;
22812;SDS011;11573;51.334;3.244;2023-06-10T13:57:22;10.27;;;6.50;;
22812;SDS011;11573;51.334;3.244;2023-06-10T13:59:49;11.77;;;7.72;;
22812;SDS011;11573;51.334;3.244;2023-06-10T14:02:16;10.70;;;6.60;;
22812;SDS011;11573;51.334;3.244;2023-06-10T14:04:44;9.57;;;6.97;;
22812;SDS011;11573;51.334;3.244;2023-06-10T14:07:11;8.73;;;6.35;;
22812;SDS011;11573;51.334;3.244;2023-06-10T14:09:38;13.63;;;7.53;;
22812;SDS011;11573;51.334;3.244;2023-06-10T14:12:05;9.35;;;7.18;;
22812;SDS011;11573;51.334;3.244;2023-06-10T14:14:32;7.78;;;7.07;;
22812;SDS011;11573;51.334;3.244;2023-06-10T14:16:59;12.80;;;7.70;;
22812;SDS011;11573;51.334;3.244;2023-06-10T14:19:26;14.93;;;8.65;;
22812;SDS011;11573;51.334;3.244;2023-06-10T14:21:53;13.10;;;8.05;;
22812;SDS011;11573;51.334;3.244;2023-06-10T14:24:21;13.07;;;8.65;;
22812;SDS011;11573;51.334;3.244;2023-06-10T14:26:49;12.60;;;8.50;;
22812;SDS011;11573;51.334;3.244;2023-06-10T14:29:16;14.23;;;8.38;;
22812;SDS011;11573;51.334;3.244;2023-06-10T14:31:45;13.15;;;9.05;;
22812;SDS011;11573;51.334;3.244;2023-06-10T14:34:12;15.50;;;9.85;;
22812;SDS011;11573;51.334;3.244;2023-06-10T14:36:39;12.77;;;8.82;;
22812;SDS011;11573;51.334;3.244;2023-06-10T14:39:05;17.70;;;8.95;;
22812;SDS011;11573;51.334;3.244;2023-06-10T14:41:32;13.88;;;8.68;;
22812;SDS011;11573;51.334;3.244;2023-06-10T14:43:59;13.48;;;8.00;;
22812;SDS011;11573;51.334;3.244;2023-06-10T14:46:26;15.05;;;8.98;;
22812;SDS011;11573;51.334;3.244;2023-06-10T14:48:53;12.85;;;8.70;;
22812;SDS011;11573;51.334;3.244;2023-06-10T14:51:20;17.95;;;10.20;;
22812;SDS011;11573;51.334;3.244;2023-06-10T14:53:47;13.52;;;9.15;;
22812;SDS011;11573;51.334;3.244;2023-06-10T14:56:14;16.77;;;9.73;;
22812;SDS011;11573;51.334;3.244;2023-06-10T14:58:41;14.45;;;9.52;;
22812;SDS011;11573;51.334;3.244;2023-06-10T15:01:08;18.05;;;9.20;;
22812;SDS011;11573;51.334;3.244;2023-06-10T15:03:35;14.75;;;8.55;;
22812;SDS011;11573;51.334;3.244;2023-06-10T15:06:02;15.15;;;9.68;;